Time;durP1;ratioP1;P1;durP2;ratioP2;P2;SDS_P1;SDS_P2;PMS_P1;PMS_P2;Temp;Humidity;BMP_temperature;BMP_pressure;BME280_temperature;BME280_humidity;BME280_pressure;Samples;Min_cycle;Max_cycle;Signal;HPM_P1;HPM_P2
2023/10/27 00:00:07;;;;;;;;;;;;;;;;;;5010130;28;20007;-81
2023/10/27 00:02:39;;;;;;;;;;;;;;;;;;5005776;28;19964;-81
2023/10/27 00:05:07;;;;;;;;;;;;;;;;;;5006315;28;19923;-80
2023/10/27 00:07:36;;;;;;;;;;;;;;;;;;5023600;28;19912;-81
2023/10/27 00:10:04;;;;;;;;;;;;;;;;;;5025209;28;20299;-81
2023/10/27 00:12:32;;;;;;;;;;;;;;;;;;5039908;28;19999;-80
2023/10/27 00:15:02;;;;;;;;;;;;;;;;;;5022692;28;19948;-80
2023/10/27 00:17:28;;;;;;;;;;;;;;;;;;5022962;28;19955;-80
2023/10/27 00:19:55;;;;;;;;;;;;;;;;;;5023317;28;19978;-81
2023/10/27 00:22:25;;;;;;;;;;;;;;;;;;5021639;28;19948;-81
2023/10/27 00:25:06;;;;;;;;;;;;;;;;;;5022264;28;19913;-80
2023/10/27 00:27:32;;;;;;;;;;;;;;;;;;5034243;28;19913;-80
2023/10/27 00:29:58;;;;;;;;;;;;;;;;;;5059308;28;19912;-81
2023/10/27 00:32:23;;;;;;;;;;;;;;;;;;5040086;28;19904;-80
2023/10/27 00:34:49;;;;;;;;;;;;;;;;;;5056627;28;19921;-80
2023/10/27 00:37:19;;;;;;;;;;;;;;;;;;5030788;28;19915;-80
2023/10/27 00:39:45;;;;;;;;;;;;;;;;;;5023730;28;20436;-81
2023/10/27 00:42:10;;;;;;;;;;;;;;;;;;5021859;28;20004;-81
2023/10/27 00:44:36;;;;;;;;;;;;;;;;;;5021512;28;19909;-81
2023/10/27 00:47:04;;;;;;;;;;;;;;;;;;5023236;28;19913;-81
2023/10/27 00:49:29;;;;;;;;;;;;;;;;;;5022187;28;20004;-79
2023/10/27 00:51:58;;;;;;;;;;;;;;;;;;5022528;28;19996;-82
2023/10/27 00:54:24;;;;;;;;;;;;;;;;;;5039786;28;19913;-81
2023/10/27 00:56:49;;;;;;;;;;;;;;;;;;5023883;28;19926;-80
2023/10/27 00:59:15;;;;;;;;;;;;;;;;;;5024174;28;19947;-80
2023/10/27 01:01:42;;;;;;;;;;;;;;;;;;5022212;28;19959;-80
2023/10/27 01:04:09;;;;;;;;;;;;;;;;;;5037034;28;20394;-81
2023/10/27 01:06:34;;;;;;;;;;;;;;;;;;5021829;28;19917;-82
2023/10/27 01:09:00;;;;;;;;;;;;;;;;;;5007595;28;19917;-81
2023/10/27 01:11:25;;;;;;;;;;;;;;;;;;4991076;28;19924;-79
2023/10/27 01:13:52;;;;;;;;;;;;;;;;;;5020774;28;20364;-81
2023/10/27 01:16:17;;;;;;;;;;;;;;;;;;4992161;28;19920;-80
2023/10/27 01:18:43;;;;;;;;;;;;;;;;;;5005661;28;20364;-80
2023/10/27 01:21:09;;;;;;;;;;;;;;;;;;4991254;28;19909;-79
2023/10/27 01:23:37;;;;;;;;;;;;;;;;;;5008610;28;19920;-81
2023/10/27 01:26:10;;;;;;;;;;;;;;;;;;5006995;28;19921;-80
2023/10/27 01:28:41;;;;;;;;;;;;;;;;;;5007086;28;19913;-79
2023/10/27 01:31:16;;;;;;;;;;;;;;;;;;4993456;28;19914;-80
2023/10/27 01:33:46;;;;;;;;;;;;;;;;;;5025913;28;20274;-80
2023/10/27 01:36:14;;;;;;;;;;;;;;;;;;5026806;28;20000;-80
2023/10/27 01:38:41;;;;;;;;;;;;;;;;;;5041361;28;19909;-81
2023/10/27 01:41:07;;;;;;;;;;;;;;;;;;5025051;28;19939;-81
2023/10/27 01:43:33;;;;;;;;;;;;;;;;;;5026220;28;19913;-80
2023/10/27 01:46:03;;;;;;;;;;;;;;;;;;5024226;28;20252;-80
2023/10/27 01:48:29;;;;;;;;;;;;;;;;;;5040101;28;19913;-80
2023/10/27 01:50:55;;;;;;;;;;;;;;;;;;5040987;28;20264;-81
2023/10/27 01:53:21;;;;;;;;;;;;;;;;;;5022934;28;19962;-80
2023/10/27 01:55:49;;;;;;;;;;;;;;;;;;5007675;28;20012;-80
2023/10/27 01:58:15;;;;;;;;;;;;;;;;;;5008313;28;19952;-81
2023/10/27 02:00:47;;;;;;;;;;;;;;;;;;5025072;28;19917;-81
2023/10/27 02:03:16;;;;;;;;;;;;;;;;;;5011365;28;20003;-81
2023/10/27 02:05:42;;;;;;;;;;;;;;;;;;5016398;28;19920;-81
2023/10/27 02:08:09;;;;;;;;;;;;;;;;;;5030959;28;19965;-83
2023/10/27 02:10:35;;;;;;;;;;;;;;;;;;5033698;28;19909;-81
2023/10/27 02:13:00;;;;;;;;;;;;;;;;;;5017035;28;19916;-81
2023/10/27 02:15:30;;;;;;;;;;;;;;;;;;5018337;28;19913;-81
2023/10/27 02:17:56;;;;;;;;;;;;;;;;;;5034358;28;19913;-81
2023/10/27 02:20:22;;;;;;;;;;;;;;;;;;5010911;28;20328;-80
2023/10/27 02:22:50;;;;;;;;;;;;;;;;;;5008267;28;20326;-79
2023/10/27 02:25:16;;;;;;;;;;;;;;;;;;5006398;28;19913;-79
2023/10/27 02:27:43;;;;;;;;;;;;;;;;;;5008312;28;19916;-80
2023/10/27 02:30:12;;;;;;;;;;;;;;;;;;5009158;28;19974;-79
2023/10/27 02:32:40;;;;;;;;;;;;;;;;;;5010064;28;19917;-80
2023/10/27 02:35:09;;;;;;;;;;;;;;;;;;5026049;28;19940;-80
2023/10/27 02:38:04;;;;;;;;;;;;;;;;;;5041933;28;19913;-80
2023/10/27 02:40:32;;;;;;;;;;;;;;;;;;5057276;28;19947;-81
2023/10/27 02:42:58;;;;;;;;;;;;;;;;;;5044115;28;19976;-80
2023/10/27 02:45:33;;;;;;;;;;;;;;;;;;5044219;28;19900;-81
2023/10/27 02:48:00;;;;;;;;;;;;;;;;;;5060182;28;19912;-80
2023/10/27 02:50:31;;;;;;;;;;;;;;;;;;5041791;28;19988;-82
2023/10/27 02:53:06;;;;;;;;;;;;;;;;;;5033948;28;20031;-79
2023/10/27 02:55:51;;;;;;;;;;;;;;;;;;5021650;28;19956;-81
2023/10/27 02:58:17;;;;;;;;;;;;;;;;;;5005395;28;19913;-81
2023/10/27 03:00:45;;;;;;;;;;;;;;;;;;5006228;28;19978;-80
2023/10/27 03:03:11;;;;;;;;;;;;;;;;;;5033536;28;19917;-81
2023/10/27 03:05:36;;;;;;;;;;;;;;;;;;5055047;28;19964;-80
2023/10/27 03:08:03;;;;;;;;;;;;;;;;;;5020048;28;19944;-81
2023/10/27 03:10:31;;;;;;;;;;;;;;;;;;5048345;28;19935;-83
2023/10/27 03:13:08;;;;;;;;;;;;;;;;;;5054016;28;19920;-81
2023/10/27 03:15:39;;;;;;;;;;;;;;;;;;5035721;28;19913;-80
2023/10/27 03:18:12;;;;;;;;;;;;;;;;;;5033494;28;19912;-81
2023/10/27 03:20:41;;;;;;;;;;;;;;;;;;5044956;28;19913;-80
2023/10/27 03:23:11;;;;;;;;;;;;;;;;;;5060916;28;19920;-81
2023/10/27 03:25:40;;;;;;;;;;;;;;;;;;5024430;28;20007;-80
2023/10/27 03:28:06;;;;;;;;;;;;;;;;;;5023914;28;20389;-81
2023/10/27 03:30:34;;;;;;;;;;;;;;;;;;5025482;28;19909;-81
2023/10/27 03:33:00;;;;;;;;;;;;;;;;;;5025290;28;19921;-81
2023/10/27 03:35:28;;;;;;;;;;;;;;;;;;5024371;28;19917;-80
2023/10/27 03:37:54;;;;;;;;;;;;;;;;;;5059418;28;19947;-80
2023/10/27 03:40:19;;;;;;;;;;;;;;;;;;5025663;28;19953;-81
2023/10/27 03:42:45;;;;;;;;;;;;;;;;;;5025602;28;19917;-81
2023/10/27 03:45:15;;;;;;;;;;;;;;;;;;5023844;28;20003;-81
2023/10/27 03:47:41;;;;;;;;;;;;;;;;;;5023953;28;19952;-81
2023/10/27 03:50:09;;;;;;;;;;;;;;;;;;5024255;28;19993;-81
2023/10/27 03:52:41;;;;;;;;;;;;;;;;;;5041923;28;19921;-80
2023/10/27 03:55:16;;;;;;;;;;;;;;;;;;5039082;28;19950;-82
2023/10/27 03:57:44;;;;;;;;;;;;;;;;;;5023343;28;19948;-80
2023/10/27 04:00:10;;;;;;;;;;;;;;;;;;5006567;28;20350;-81
2023/10/27 04:02:49;;;;;;;;;;;;;;;;;;;;;
2023/10/27 04:05:41;;;;;;;;;;;;;;;;;;4997426;28;20376;-79
2023/10/27 04:08:08;;;;;;;;;;;;;;;;;;5020390;28;19917;-80
2023/10/27 04:10:42;;;;;;;;;;;;;;;;;;5005890;28;19909;-81
2023/10/27 04:13:09;;;;;;;;;;;;;;;;;;5020998;28;19964;-81
2023/10/27 04:15:37;;;;;;;;;;;;;;;;;;5040426;28;19974;-82
2023/10/27 04:18:13;;;;;;;;;;;;;;;;;;5022993;28;19913;-79
2023/10/27 04:20:49;;;;;;;;;;;;;;;;;;5040287;28;19916;-82
2023/10/27 04:23:22;;;;;;;;;;;;;;;;;;5023848;28;19995;-80
2023/10/27 04:25:51;;;;;;;;;;;;;;;;;;5025507;28;20380;-82
2023/10/27 04:28:55;;;;;;;;;;;;;;;;;;4986379;28;20004;-81
2023/10/27 04:31:21;;;;;;;;;;;;;;;;;;4978871;28;20096;-81
2023/10/27 04:33:59;;;;;;;;;;;;;;;;;;4977600;28;19918;-81
2023/10/27 04:36:26;;;;;;;;;;;;;;;;;;4977668;28;20299;-81
2023/10/27 04:38:52;;;;;;;;;;;;;;;;;;4977705;28;20020;-80
2023/10/27 04:41:21;;;;;;;;;;;;;;;;;;4981357;28;20396;-82
2023/10/27 04:44:04;;;;;;;;;;;;;;;;;;4964444;28;19996;-81
2023/10/27 04:46:45;;;;;;;;;;;;;;;;;;4979296;28;19968;-81
2023/10/27 04:49:13;;;;;;;;;;;;;;;;;;4980323;28;19914;-80
2023/10/27 04:51:58;;;;;;;;;;;;;;;;;;;;;
2023/10/27 04:58:25;;;;;;;;;;;;;;;;;;4962826;28;19921;-82
2023/10/27 05:01:33;;;;;;;;;;;;;;;;;;4938298;29;20010;-80
2023/10/27 05:05:11;;;;;;;;;;;;;;;;;;4995100;28;19961;-80
2023/10/27 05:07:38;;;;;;;;;;;;;;;;;;4962546;28;19913;-80
2023/10/27 05:10:07;;;;;;;;;;;;;;;;;;4948155;28;20467;-80
2023/10/27 05:12:36;;;;;;;;;;;;;;;;;;4953147;28;20399;-79
2023/10/27 05:15:01;;;;;;;;;;;;;;;;;;4954954;28;19933;-82
2023/10/27 05:17:28;;;;;;;;;;;;;;;;;;4975255;28;19914;-80
2023/10/27 05:19:57;;;;;;;;;;;;;;;;;;4959146;28;19926;-80
2023/10/27 05:22:23;;;;;;;;;;;;;;;;;;4958809;28;20045;-80
2023/10/27 05:24:49;;;;;;;;;;;;;;;;;;4958746;28;19929;-80
2023/10/27 05:27:15;;;;;;;;;;;;;;;;;;4958694;28;19918;-79
2023/10/27 05:29:44;;;;;;;;;;;;;;;;;;5022837;23;19928;-79
2023/10/27 05:32:15;;;;;;;;;;;;;;;;;;5065967;28;19921;-79
2023/10/27 05:34:44;;;;;;;;;;;;;;;;;;5107800;28;19900;-79
2023/10/27 05:37:14;;;;;;;;;;;;;;;;;;5108827;28;19971;-79
2023/10/27 05:39:43;;;;;;;;;;;;;;;;;;5094298;28;19908;-78
2023/10/27 05:42:09;;;;;;;;;;;;;;;;;;5110843;28;20028;-79
2023/10/27 05:44:34;;;;;;;;;;;;;;;;;;5092952;28;19904;-79
2023/10/27 05:47:21;;;;;;;;;;;;;;;;;;5074405;28;19935;-79
2023/10/27 05:49:47;;;;;;;;;;;;;;;;;;5080429;28;20397;-78
2023/10/27 05:52:13;;;;;;;;;;;;;;;;;;5096845;28;19923;-79
2023/10/27 05:54:38;;;;;;;;;;;;;;;;;;5048002;28;20056;-81
2023/10/27 05:57:04;;;;;;;;;;;;;;;;;;5044651;28;19933;-80
2023/10/27 05:59:29;;;;;;;;;;;;;;;;;;5043009;28;19980;-80
2023/10/27 06:01:55;;;;;;;;;;;;;;;;;;5042764;28;19923;-80
2023/10/27 06:04:21;;;;;;;;;;;;;;;;;;5039169;28;19932;-79
2023/10/27 06:06:46;;;;;;;;;;;;;;;;;;5054933;28;19950;-79
2023/10/27 06:09:12;;;;;;;;;;;;;;;;;;5042187;28;19913;-79
2023/10/27 06:11:37;;;;;;;;;;;;;;;;;;5040005;28;19928;-80
2023/10/27 06:14:03;;;;;;;;;;;;;;;;;;5053871;28;20020;-78
2023/10/27 06:16:28;;;;;;;;;;;;;;;;;;5050608;28;20417;-79
2023/10/27 06:18:54;;;;;;;;;;;;;;;;;;5021237;28;19913;-77
2023/10/27 06:21:19;;;;;;;;;;;;;;;;;;5052626;28;19909;-78
2023/10/27 06:23:44;;;;;;;;;;;;;;;;;;5017732;28;20325;-78
2023/10/27 06:26:10;;;;;;;;;;;;;;;;;;5018075;28;19913;-78
2023/10/27 06:28:36;;;;;;;;;;;;;;;;;;5026666;28;19925;-79
2023/10/27 06:31:02;;;;;;;;;;;;;;;;;;5054097;28;19919;-79
2023/10/27 06:33:32;;;;;;;;;;;;;;;;;;5052569;28;19952;-77
2023/10/27 06:35:58;;;;;;;;;;;;;;;;;;5054548;28;20019;-79
2023/10/27 06:38:23;;;;;;;;;;;;;;;;;;5053263;28;20370;-79
2023/10/27 06:40:49;;;;;;;;;;;;;;;;;;5055079;28;19931;-77
2023/10/27 06:43:15;;;;;;;;;;;;;;;;;;5056107;28;20390;-80
2023/10/27 06:45:40;;;;;;;;;;;;;;;;;;5038350;28;19917;-78
2023/10/27 06:48:05;;;;;;;;;;;;;;;;;;5054952;28;20268;-78
2023/10/27 06:50:31;;;;;;;;;;;;;;;;;;5037950;28;19951;-80
2023/10/27 06:52:57;;;;;;;;;;;;;;;;;;5038478;28;19928;-79
2023/10/27 06:55:28;;;;;;;;;;;;;;;;;;5069367;28;19913;-79
2023/10/27 06:57:56;;;;;;;;;;;;;;;;;;5060246;28;19912;-79
2023/10/27 07:00:21;;;;;;;;;;;;;;;;;;5069621;28;19931;-80
2023/10/27 07:02:47;;;;;;;;;;;;;;;;;;5085978;28;19959;-81
2023/10/27 07:05:16;;;;;;;;;;;;;;;;;;5060450;28;19956;-79
2023/10/27 07:07:42;;;;;;;;;;;;;;;;;;5054616;28;19992;-80
2023/10/27 07:10:07;;;;;;;;;;;;;;;;;;5071175;28;20260;-79
2023/10/27 07:12:38;;;;;;;;;;;;;;;;;;5037961;28;19967;-79
2023/10/27 07:15:04;;;;;;;;;;;;;;;;;;5069349;28;20296;-79
2023/10/27 07:17:30;;;;;;;;;;;;;;;;;;5071226;28;20340;-80
2023/10/27 07:19:58;;;;;;;;;;;;;;;;;;5055010;28;19943;-81
2023/10/27 07:22:24;;;;;;;;;;;;;;;;;;5071099;28;20454;-81
2023/10/27 07:24:50;;;;;;;;;;;;;;;;;;5039164;28;19924;-79
2023/10/27 07:27:15;;;;;;;;;;;;;;;;;;5054340;28;19959;-80
2023/10/27 07:29:41;;;;;;;;;;;;;;;;;;5054984;28;19979;-79
2023/10/27 07:32:07;;;;;;;;;;;;;;;;;;5070539;28;19925;-79
2023/10/27 07:34:33;;;;;;;;;;;;;;;;;;5053653;28;19916;-78
2023/10/27 07:36:58;;;;;;;;;;;;;;;;;;5052810;28;19920;-79
2023/10/27 07:39:24;;;;;;;;;;;;;;;;;;5036551;28;20334;-79
2023/10/27 07:41:49;;;;;;;;;;;;;;;;;;5055217;28;20028;-80
2023/10/27 07:44:15;;;;;;;;;;;;;;;;;;5052965;28;19932;-78
2023/10/27 07:46:41;;;;;;;;;;;;;;;;;;5038494;28;19909;-79
2023/10/27 07:49:07;;;;;;;;;;;;;;;;;;5054378;28;19923;-80
2023/10/27 07:51:33;;;;;;;;;;;;;;;;;;5054625;28;19928;-79
2023/10/27 07:54:00;;;;;;;;;;;;;;;;;;5055073;28;20477;-79
2023/10/27 07:56:25;;;;;;;;;;;;;;;;;;5056309;28;20383;-78
2023/10/27 07:58:52;;;;;;;;;;;;;;;;;;5059600;28;19916;-78
2023/10/27 08:01:18;;;;;;;;;;;;;;;;;;5041924;28;19917;-79
2023/10/27 08:03:46;;;;;;;;;;;;;;;;;;5059209;28;19923;-78
2023/10/27 08:06:11;;;;;;;;;;;;;;;;;;5059181;28;19909;-79
2023/10/27 08:08:37;;;;;;;;;;;;;;;;;;5073961;28;20402;-78
2023/10/27 08:11:04;;;;;;;;;;;;;;;;;;5037704;28;20105;-79
2023/10/27 08:13:31;;;;;;;;;;;;;;;;;;5055441;28;20323;-79
2023/10/27 08:15:58;;;;;;;;;;;;;;;;;;5036293;28;20407;-78
2023/10/27 08:18:27;;;;;;;;;;;;;;;;;;5052681;28;19913;-77
2023/10/27 08:20:53;;;;;;;;;;;;;;;;;;5052473;28;19925;-78
2023/10/27 08:23:21;;;;;;;;;;;;;;;;;;5055981;28;19916;-77
2023/10/27 08:25:51;;;;;;;;;;;;;;;;;;5061497;28;19916;-78
2023/10/27 08:28:18;;;;;;;;;;;;;;;;;;5089542;28;19920;-78
2023/10/27 08:30:43;;;;;;;;;;;;;;;;;;5073357;28;19916;-78
2023/10/27 08:33:19;;;;;;;;;;;;;;;;;;5074396;28;20225;-79
2023/10/27 08:35:46;;;;;;;;;;;;;;;;;;5075148;28;19921;-77
2023/10/27 08:38:13;;;;;;;;;;;;;;;;;;5072914;28;19909;-79
2023/10/27 08:40:40;;;;;;;;;;;;;;;;;;5069316;28;19920;-77
2023/10/27 08:43:06;;;;;;;;;;;;;;;;;;5053875;28;20423;-78
2023/10/27 08:48:08;;;;;;;;;;;;;;;;;;5906486;22;19924;-83
2023/10/27 08:50:55;;;;;;;;;;;;;;;;;;;;;
2023/10/27 08:53:58;;;;;;;;;;;;;;;;;;4998913;28;19933;-83
2023/10/27 08:56:50;;;;;;;;;;;;;;;;;;4999719;28;19898;-82
2023/10/27 09:00:02;;;;;;;;;;;;;;;;;;4987660;28;19897;-83
2023/10/27 09:02:48;;;;;;;;;;;;;;;;;;5014702;28;19929;-83
2023/10/27 09:05:23;;;;;;;;;;;;;;;;;;4963314;28;19914;-84
2023/10/27 09:08:02;;;;;;;;;;;;;;;;;;4979874;28;19932;-84
2023/10/27 09:10:28;;;;;;;;;;;;;;;;;;4963039;28;19914;-84
2023/10/27 09:16:53;;;;;;;;;;;;;;;;;;5011424;28;19944;-83
2023/10/27 10:12:05;;;;;;;;;;;;;;;;;;4999015;28;19908;-82
2023/10/27 10:22:00;;;;;;;;;;;;;;;;;;5985773;22;19953;-84
2023/10/27 10:24:29;;;;;;;;;;;;;;;;;;4981885;28;19918;-83
2023/10/27 10:27:25;;;;;;;;;;;;;;;;;;4982802;28;19942;-83
2023/10/27 10:30:17;;;;;;;;;;;;;;;;;;4992141;28;19926;-84
2023/10/27 10:33:05;;;;;;;;;;;;;;;;;;4977823;29;19918;-84
2023/10/27 10:35:42;;;;;;;;;;;;;;;;;;4991850;28;19915;-83
2023/10/27 10:38:27;;;;;;;;;;;;;;;;;;4988897;28;19918;-82
2023/10/27 10:40:53;;;;;;;;;;;;;;;;;;4942158;29;20074;-82
2023/10/27 10:43:38;;;;;;;;;;;;;;;;;;4944927;29;19910;-81
2023/10/27 10:47:06;;;;;;;;;;;;;;;;;;4961102;28;19915;-82
2023/10/27 10:52:10;;;;;;;;;;;;;;;;;;4967567;29;19927;-83
2023/10/27 10:55:00;;;;;;;;;;;;;;;;;;4969568;28;19925;-83
2023/10/27 10:57:55;;;;;;;;;;;;;;;;;;4989348;28;19929;-81
2023/10/27 11:01:25;;;;;;;;;;;;;;;;;;4945039;29;19914;-81
2023/10/27 11:04:37;;;;;;;;;;;;;;;;;;;;;
2023/10/27 11:07:54;;;;;;;;;;;;;;;;;;4971342;28;19918;-83
2023/10/27 11:14:03;;;;;;;;;;;;;;;;;;4952742;29;19926;-82
2023/10/27 11:19:31;;;;;;;;;;;;;;;;;;4951430;29;19919;-84
2023/10/27 11:22:10;;;;;;;;;;;;;;;;;;4973524;28;19937;-84
2023/10/27 12:17:43;;;;;;;;;;;;;;;;;;5419956;23;19910;-84
2023/10/27 12:20:22;;;;;;;;;;;;;;;;;;5013261;28;19973;-83
2023/10/27 12:23:24;;;;;;;;;;;;;;;;;;4997785;28;19929;-82
2023/10/27 12:26:33;;;;;;;;;;;;;;;;;;5002423;28;19914;-83
2023/10/27 12:29:10;;;;;;;;;;;;;;;;;;4994317;28;19903;-84
2023/10/27 12:32:00;;;;;;;;;;;;;;;;;;4978428;28;19918;-84
2023/10/27 12:34:49;;;;;;;;;;;;;;;;;;4973796;29;19923;-83
2023/10/27 12:37:27;;;;;;;;;;;;;;;;;;4958268;28;19925;-83
2023/10/27 12:39:56;;;;;;;;;;;;;;;;;;4991170;28;19921;-83
2023/10/27 12:42:42;;;;;;;;;;;;;;;;;;4975027;28;19903;-84
2023/10/27 12:45:42;;;;;;;;;;;;;;;;;;4962278;29;19950;-82
2023/10/27 13:07:05;;;;;;;;;;;;;;;;;;5017759;26;19989;-83
2023/10/27 13:09:37;;;;;;;;;;;;;;;;;;5019019;28;19918;-84
2023/10/27 13:12:10;;;;;;;;;;;;;;;;;;5004083;28;19926;-84
2023/10/27 13:15:15;;;;;;;;;;;;;;;;;;5007038;28;20443;-82
2023/10/27 13:18:05;;;;;;;;;;;;;;;;;;5020149;28;19902;-83
2023/10/27 13:20:48;;;;;;;;;;;;;;;;;;4989020;28;19941;-84
2023/10/27 13:24:00;;;;;;;;;;;;;;;;;;5020379;28;19941;-83
2023/10/27 13:27:25;;;;;;;;;;;;;;;;;;5008313;28;19960;-84
2023/10/27 13:30:05;;;;;;;;;;;;;;;;;;4985886;28;19918;-82
2023/10/27 13:32:35;;;;;;;;;;;;;;;;;;4980986;28;19922;-84
2023/10/27 13:35:07;;;;;;;;;;;;;;;;;;4967370;28;19929;-83
2023/10/27 13:38:03;;;;;;;;;;;;;;;;;;4979722;28;19913;-82
2023/10/27 13:40:45;;;;;;;;;;;;;;;;;;4979262;28;19920;-82
2023/10/27 13:43:16;;;;;;;;;;;;;;;;;;4963355;28;19953;-83
2023/10/27 13:45:43;;;;;;;;;;;;;;;;;;4967287;28;19914;-83
2023/10/27 13:48:22;;;;;;;;;;;;;;;;;;5011200;28;19917;-83
2023/10/27 13:50:54;;;;;;;;;;;;;;;;;;4980010;28;19958;-84
2023/10/27 14:03:19;;;;;;;;;;;;;;;;;;6053072;22;20002;-83
2023/10/27 14:06:06;;;;;;;;;;;;;;;;;;4994114;28;20484;-83
2023/10/27 14:08:39;;;;;;;;;;;;;;;;;;5008502;28;19913;-84
2023/10/27 14:11:17;;;;;;;;;;;;;;;;;;4975559;28;19915;-83
2023/10/27 14:13:46;;;;;;;;;;;;;;;;;;4960354;29;19973;-83
2023/10/27 14:16:18;;;;;;;;;;;;;;;;;;4973930;28;19914;-82
2023/10/27 14:18:51;;;;;;;;;;;;;;;;;;4990548;28;19915;-83
2023/10/27 14:21:29;;;;;;;;;;;;;;;;;;4975817;29;19921;-83
2023/10/27 14:24:49;;;;;;;;;;;;;;;;;;5006482;28;19913;-84
2023/10/27 14:28:09;;;;;;;;;;;;;;;;;;4998835;28;19936;-83
2023/10/27 14:31:39;;;;;;;;;;;;;;;;;;5017362;28;19924;-83
2023/10/27 14:43:57;;;;;;;;;;;;;;;;;;6063011;23;19924;-76
2023/10/27 14:46:23;;;;;;;;;;;;;;;;;;4995769;28;19926;-75
2023/10/27 14:48:49;;;;;;;;;;;;;;;;;;4993699;28;19968;-75
2023/10/27 14:51:14;;;;;;;;;;;;;;;;;;4993546;28;20304;-76
2023/10/27 14:53:40;;;;;;;;;;;;;;;;;;4981481;28;19929;-77
2023/10/27 14:56:05;;;;;;;;;;;;;;;;;;4994795;28;19949;-76
2023/10/27 14:58:32;;;;;;;;;;;;;;;;;;4993595;28;19977;-77
2023/10/27 15:00:58;;;;;;;;;;;;;;;;;;5010442;28;19972;-76
2023/10/27 15:03:26;;;;;;;;;;;;;;;;;;4996731;28;19914;-75
2023/10/27 15:05:52;;;;;;;;;;;;;;;;;;4994172;28;20065;-75
2023/10/27 15:08:17;;;;;;;;;;;;;;;;;;4992914;28;20374;-75
2023/10/27 15:10:43;;;;;;;;;;;;;;;;;;4994191;28;19914;-75
2023/10/27 15:13:08;;;;;;;;;;;;;;;;;;4986827;28;19914;-75
2023/10/27 15:15:34;;;;;;;;;;;;;;;;;;4972894;28;19996;-75
2023/10/27 15:17:59;;;;;;;;;;;;;;;;;;4973924;28;19918;-74
2023/10/27 15:20:25;;;;;;;;;;;;;;;;;;4973433;28;19936;-74
2023/10/27 15:22:50;;;;;;;;;;;;;;;;;;4989441;28;20401;-74
2023/10/27 15:25:16;;;;;;;;;;;;;;;;;;4989216;28;19957;-74
2023/10/27 15:27:41;;;;;;;;;;;;;;;;;;4981902;28;19913;-74
2023/10/27 15:30:09;;;;;;;;;;;;;;;;;;4992618;28;19918;-74
2023/10/27 15:32:36;;;;;;;;;;;;;;;;;;4992631;28;20025;-74
2023/10/27 15:35:10;;;;;;;;;;;;;;;;;;4992041;28;20333;-74
2023/10/27 15:37:37;;;;;;;;;;;;;;;;;;4992870;28;20383;-75
2023/10/27 15:40:03;;;;;;;;;;;;;;;;;;4976786;28;19972;-74
2023/10/27 15:42:28;;;;;;;;;;;;;;;;;;4992772;28;20017;-74
2023/10/27 15:44:59;;;;;;;;;;;;;;;;;;4976371;28;19972;-74
2023/10/27 15:47:31;;;;;;;;;;;;;;;;;;5000165;28;20316;-73
2023/10/27 15:50:17;;;;;;;;;;;;;;;;;;5001621;28;19937;-74
2023/10/27 15:53:21;;;;;;;;;;;;;;;;;;;;;
2023/10/27 15:55:47;;;;;;;;;;;;;;;;;;5008728;28;19964;-75
2023/10/27 15:58:13;;;;;;;;;;;;;;;;;;4999990;28;19914;-75
2023/10/27 16:00:39;;;;;;;;;;;;;;;;;;4992549;28;19914;-73
2023/10/27 16:03:05;;;;;;;;;;;;;;;;;;4993374;28;19914;-74
2023/10/27 16:05:30;;;;;;;;;;;;;;;;;;4993034;28;20009;-74
2023/10/27 16:07:56;;;;;;;;;;;;;;;;;;5008715;28;19964;-75
2023/10/27 16:10:22;;;;;;;;;;;;;;;;;;5008410;28;19964;-75
2023/10/27 16:12:47;;;;;;;;;;;;;;;;;;4992927;28;19929;-75
2023/10/27 16:15:15;;;;;;;;;;;;;;;;;;4976379;28;19918;-74
2023/10/27 16:17:42;;;;;;;;;;;;;;;;;;4991944;28;19925;-74
2023/10/27 16:20:07;;;;;;;;;;;;;;;;;;4992529;28;19914;-74
2023/10/27 16:22:33;;;;;;;;;;;;;;;;;;4992568;28;19968;-74
2023/10/27 16:24:59;;;;;;;;;;;;;;;;;;5007972;28;19924;-74
2023/10/27 16:27:24;;;;;;;;;;;;;;;;;;4991626;28;20312;-75
2023/10/27 16:29:50;;;;;;;;;;;;;;;;;;4993167;28;20281;-74
2023/10/27 16:32:16;;;;;;;;;;;;;;;;;;4991521;28;19941;-73
2023/10/27 16:34:42;;;;;;;;;;;;;;;;;;5003831;28;20406;-74
2023/10/27 16:37:08;;;;;;;;;;;;;;;;;;4992466;28;19918;-74
2023/10/27 16:39:33;;;;;;;;;;;;;;;;;;4993174;28;19920;-74
2023/10/27 16:41:58;;;;;;;;;;;;;;;;;;4991866;28;20296;-74
2023/10/27 16:44:33;;;;;;;;;;;;;;;;;;4991740;28;20320;-74
2023/10/27 16:46:59;;;;;;;;;;;;;;;;;;4992389;28;19917;-74
2023/10/27 16:49:26;;;;;;;;;;;;;;;;;;4976269;28;20296;-74
2023/10/27 16:51:52;;;;;;;;;;;;;;;;;;4992795;28;19956;-74
2023/10/27 16:54:17;;;;;;;;;;;;;;;;;;4974702;28;20012;-74
2023/10/27 16:56:43;;;;;;;;;;;;;;;;;;4994263;28;19939;-74
2023/10/27 16:59:09;;;;;;;;;;;;;;;;;;4988758;28;19984;-74
2023/10/27 17:01:34;;;;;;;;;;;;;;;;;;4974026;28;20400;-74
2023/10/27 17:04:00;;;;;;;;;;;;;;;;;;4988990;28;19934;-74
2023/10/27 17:06:25;;;;;;;;;;;;;;;;;;4972852;28;19918;-74
2023/10/27 17:08:51;;;;;;;;;;;;;;;;;;4974225;28;19914;-73
2023/10/27 17:11:17;;;;;;;;;;;;;;;;;;4956492;28;20005;-75
2023/10/27 17:13:44;;;;;;;;;;;;;;;;;;4982589;28;19922;-75
2023/10/27 17:16:09;;;;;;;;;;;;;;;;;;4992483;28;19916;-75
2023/10/27 17:18:39;;;;;;;;;;;;;;;;;;4992783;28;19945;-74
2023/10/27 17:21:04;;;;;;;;;;;;;;;;;;4992298;28;19930;-75
2023/10/27 17:23:31;;;;;;;;;;;;;;;;;;4975393;28;20387;-75
2023/10/27 17:25:57;;;;;;;;;;;;;;;;;;4991020;28;19914;-73
2023/10/27 17:28:23;;;;;;;;;;;;;;;;;;4992223;28;19914;-73
2023/10/27 17:30:48;;;;;;;;;;;;;;;;;;4985978;28;20377;-74
2023/10/27 17:33:14;;;;;;;;;;;;;;;;;;4992478;28;19928;-75
2023/10/27 17:35:43;;;;;;;;;;;;;;;;;;4974820;28;20330;-74
2023/10/27 17:38:13;;;;;;;;;;;;;;;;;;4990729;28;19933;-75
2023/10/27 17:40:42;;;;;;;;;;;;;;;;;;4991346;28;20004;-74
2023/10/27 17:43:07;;;;;;;;;;;;;;;;;;4991827;28;20396;-74
2023/10/27 17:45:33;;;;;;;;;;;;;;;;;;4991712;28;19928;-75
2023/10/27 17:48:01;;;;;;;;;;;;;;;;;;4978739;28;19921;-75
2023/10/27 17:50:27;;;;;;;;;;;;;;;;;;4993090;28;19992;-75
2023/10/27 17:52:52;;;;;;;;;;;;;;;;;;4996186;28;19925;-76
2023/10/27 17:55:18;;;;;;;;;;;;;;;;;;5010950;28;20387;-75
2023/10/27 17:57:46;;;;;;;;;;;;;;;;;;5012379;28;20391;-75
2023/10/27 18:00:12;;;;;;;;;;;;;;;;;;5011049;28;20303;-75
2023/10/27 18:02:40;;;;;;;;;;;;;;;;;;5010960;28;19914;-74
2023/10/27 18:05:06;;;;;;;;;;;;;;;;;;5011288;28;19914;-75
2023/10/27 18:07:32;;;;;;;;;;;;;;;;;;4996590;28;19910;-73
2023/10/27 18:10:00;;;;;;;;;;;;;;;;;;5002261;28;19917;-74
2023/10/27 18:12:31;;;;;;;;;;;;;;;;;;5015501;28;19928;-74
2023/10/27 18:14:56;;;;;;;;;;;;;;;;;;5017857;28;20369;-74
2023/10/27 18:17:25;;;;;;;;;;;;;;;;;;5001302;28;20021;-74
2023/10/27 18:19:51;;;;;;;;;;;;;;;;;;5001961;28;19914;-74
2023/10/27 18:22:17;;;;;;;;;;;;;;;;;;4999693;28;19976;-73
2023/10/27 18:24:42;;;;;;;;;;;;;;;;;;5013799;28;19914;-74
2023/10/27 18:27:09;;;;;;;;;;;;;;;;;;4980311;28;19953;-73
2023/10/27 18:29:34;;;;;;;;;;;;;;;;;;5000001;28;19918;-75
2023/10/27 18:32:00;;;;;;;;;;;;;;;;;;5017445;28;19917;-75
2023/10/27 18:34:26;;;;;;;;;;;;;;;;;;5017759;28;19920;-75
2023/10/27 18:36:54;;;;;;;;;;;;;;;;;;5016507;28;20292;-74
2023/10/27 18:39:23;;;;;;;;;;;;;;;;;;4999091;28;19922;-75
2023/10/27 18:41:50;;;;;;;;;;;;;;;;;;4978156;28;20314;-74
2023/10/27 18:44:15;;;;;;;;;;;;;;;;;;4967331;28;19918;-76
2023/10/27 18:47:04;;;;;;;;;;;;;;;;;;4972958;28;19996;-75
2023/10/27 18:49:32;;;;;;;;;;;;;;;;;;4998783;28;19968;-74
2023/10/27 18:51:57;;;;;;;;;;;;;;;;;;5000256;28;19924;-75
2023/10/27 18:54:23;;;;;;;;;;;;;;;;;;4999582;28;19953;-75
2023/10/27 18:56:49;;;;;;;;;;;;;;;;;;4982891;28;19957;-75
2023/10/27 18:59:18;;;;;;;;;;;;;;;;;;4992036;28;20349;-74
2023/10/27 19:01:43;;;;;;;;;;;;;;;;;;4997079;28;19949;-75
2023/10/27 19:04:12;;;;;;;;;;;;;;;;;;4982214;28;19997;-76
2023/10/27 19:06:38;;;;;;;;;;;;;;;;;;4981286;28;19949;-75
2023/10/27 19:09:06;;;;;;;;;;;;;;;;;;4980002;28;20316;-75
2023/10/27 19:11:32;;;;;;;;;;;;;;;;;;5000293;28;19964;-76
2023/10/27 19:13:57;;;;;;;;;;;;;;;;;;5015657;28;19914;-75
2023/10/27 19:16:24;;;;;;;;;;;;;;;;;;5016733;28;19914;-76
2023/10/27 19:18:50;;;;;;;;;;;;;;;;;;5001455;28;19953;-75
2023/10/27 19:21:16;;;;;;;;;;;;;;;;;;5018335;28;19928;-75
2023/10/27 19:23:42;;;;;;;;;;;;;;;;;;5004049;28;19922;-75
2023/10/27 19:26:14;;;;;;;;;;;;;;;;;;5019733;28;20039;-74
2023/10/27 19:28:40;;;;;;;;;;;;;;;;;;5003667;28;19914;-75
2023/10/27 19:31:06;;;;;;;;;;;;;;;;;;4986508;28;20449;-74
2023/10/27 19:33:32;;;;;;;;;;;;;;;;;;5003608;28;19933;-75
2023/10/27 19:36:01;;;;;;;;;;;;;;;;;;5004002;28;19922;-74
2023/10/27 19:38:27;;;;;;;;;;;;;;;;;;5004383;28;20032;-74
2023/10/27 19:40:52;;;;;;;;;;;;;;;;;;4969072;28;19954;-75
2023/10/27 19:43:22;;;;;;;;;;;;;;;;;;4981735;28;19914;-74
2023/10/27 19:45:47;;;;;;;;;;;;;;;;;;4981788;28;19922;-75
2023/10/27 19:48:16;;;;;;;;;;;;;;;;;;4981888;28;19922;-74
2023/10/27 19:50:45;;;;;;;;;;;;;;;;;;4997698;28;19940;-75
2023/10/27 19:53:10;;;;;;;;;;;;;;;;;;4997338;28;20017;-74
2023/10/27 19:55:36;;;;;;;;;;;;;;;;;;4965419;28;19914;-75
2023/10/27 19:58:05;;;;;;;;;;;;;;;;;;4965894;28;19918;-75
2023/10/27 20:00:33;;;;;;;;;;;;;;;;;;4981499;28;19917;-74
2023/10/27 20:02:59;;;;;;;;;;;;;;;;;;4996861;28;19925;-76
2023/10/27 20:05:28;;;;;;;;;;;;;;;;;;4997582;28;19914;-73